Terminal Aerodrome Forecast
Issued by NWS Sterling, VA

Home | Current Version | Previous Version | Text Only | Print | Product List | Glossary On
Versions: 1 2 3 4 5 6 7 8 9 10 11 12 13 14 15 16 17 18 19 20 21
000
FTUS41 KLWX 211722
TAFCHO
TAF
KCHO 211722Z 2118/2218 08005KT P6SM SCT060 SCT200
     FM220000 VRB03KT P6SM VCSH BKN060
     FM220500 VRB03KT P6SM VCSH OVC020
     FM220800 VRB03KT 5SM BR VCSH OVC015
     FM221100 VRB03KT 4SM BR OVC008
     FM221400 17004KT P6SM OVC035=

USA.gov is the U.S. government's official web portal to all federal, state and local government web resources and services.